createdAt,value
2017-11-17T00:00:27.482Z,99.99
2017-11-17T00:01:27.418Z,99.99
2017-11-17T00:02:27.421Z,99.99
2017-11-17T00:03:27.484Z,99.99
2017-11-17T00:04:27.434Z,99.99
2017-11-17T00:05:27.386Z,99.99
2017-11-17T00:06:27.432Z,99.99
2017-11-17T00:07:27.433Z,99.99
2017-11-17T00:08:27.389Z,99.99
2017-11-17T00:09:27.387Z,99.99
2017-11-17T00:10:27.435Z,99.99
2017-11-17T00:11:27.343Z,99.99
2017-11-17T00:12:27.436Z,99.99
2017-11-17T00:13:27.350Z,99.99
2017-11-17T00:14:27.437Z,99.99
2017-11-17T00:15:27.441Z,99.99
2017-11-17T00:16:27.442Z,99.99
2017-11-17T00:17:27.347Z,99.99
2017-11-17T00:18:27.441Z,99.99
2017-11-17T00:19:27.441Z,99.99
2017-11-17T00:20:27.445Z,99.99
2017-11-17T00:21:27.428Z,99.99
2017-11-17T00:22:27.398Z,99.99
2017-11-17T00:23:27.398Z,99.99
2017-11-17T00:24:27.476Z,99.99
2017-11-17T00:25:27.438Z,99.99
2017-11-17T00:26:27.499Z,99.99
2017-11-17T00:27:27.453Z,99.99
2017-11-17T00:28:27.501Z,99.99
2017-11-17T00:29:27.500Z,99.99
2017-11-17T00:30:27.501Z,99.99
2017-11-17T00:31:27.457Z,99.99
2017-11-17T00:32:27.501Z,99.99
2017-11-17T00:33:27.437Z,99.99
2017-11-17T00:34:27.439Z,99.99
2017-11-17T00:35:27.441Z,99.99
2017-11-17T00:36:27.503Z,99.99
2017-11-17T00:37:27.438Z,99.99
2017-11-17T00:38:27.462Z,99.99
2017-11-17T00:39:27.509Z,99.99
2017-11-17T00:40:27.441Z,99.99
2017-11-17T00:41:27.506Z,99.99
2017-11-17T00:42:27.542Z,99.99
2017-11-17T00:43:27.507Z,99.99
2017-11-17T00:44:27.500Z,99.99
2017-11-17T00:45:27.502Z,99.99
2017-11-17T00:46:27.485Z,99.99
2017-11-17T00:47:27.435Z,99.99
2017-11-17T00:48:27.417Z,99.99
2017-11-17T00:49:27.418Z,99.99
2017-11-17T00:50:27.380Z,99.99
2017-11-17T00:51:27.399Z,99.99
2017-11-17T00:52:27.467Z,99.99
2017-11-17T00:53:27.511Z,99.99
2017-11-17T00:54:27.454Z,99.99
2017-11-17T00:55:27.519Z,99.99
2017-11-17T00:56:27.510Z,99.99
2017-11-17T00:57:27.585Z,99.99
2017-11-17T00:58:27.518Z,99.99
2017-11-17T00:59:27.518Z,99.99
2017-11-17T01:00:27.456Z,99.99
2017-11-17T01:01:27.521Z,99.99
2017-11-17T01:02:27.528Z,99.99
2017-11-17T01:03:27.525Z,99.99
2017-11-17T01:04:27.471Z,99.99
2017-11-17T01:05:27.375Z,99.99
2017-11-17T01:06:27.378Z,99.99
2017-11-17T01:07:27.475Z,99.99
2017-11-17T01:08:27.382Z,99.99
2017-11-17T01:09:27.427Z,99.99
2017-11-17T01:10:27.474Z,99.99
2017-11-17T01:11:27.382Z,99.99
2017-11-17T01:12:27.407Z,99.99
2017-11-17T01:13:27.438Z,99.99
2017-11-17T01:14:27.388Z,99.99
2017-11-17T01:15:27.508Z,99.99
2017-11-17T01:16:27.423Z,99.99
2017-11-17T01:17:27.459Z,99.99
2017-11-17T01:18:27.401Z,99.99
2017-11-17T01:19:27.456Z,99.99
2017-11-17T01:20:27.455Z,99.99
2017-11-17T01:21:27.528Z,99.99
2017-11-17T01:22:27.494Z,99.99
2017-11-17T01:23:27.398Z,99.99
2017-11-17T01:24:27.544Z,99.99
2017-11-17T01:25:27.473Z,99.99
2017-11-17T01:26:27.538Z,99.99
2017-11-17T01:27:27.471Z,99.99
2017-11-17T01:28:27.474Z,99.99
2017-11-17T01:29:27.536Z,99.99
2017-11-17T01:30:27.538Z,99.99
2017-11-17T01:31:27.498Z,99.99
2017-11-17T01:32:27.540Z,99.99
2017-11-17T01:33:27.539Z,99.99
2017-11-17T01:34:27.479Z,99.99
2017-11-17T01:35:27.500Z,99.99
2017-11-17T01:36:27.480Z,99.99
2017-11-17T01:37:27.543Z,99.99
2017-11-17T01:38:27.476Z,99.99
2017-11-17T01:39:27.549Z,99.99
2017-11-17T01:40:27.480Z,99.99
2017-11-17T01:41:27.545Z,99.99
2017-11-17T01:42:27.553Z,99.99
2017-11-17T01:43:27.483Z,99.99
2017-11-17T01:44:27.459Z,99.99
2017-11-17T01:45:27.458Z,99.99
2017-11-17T01:46:27.459Z,99.99
2017-11-17T01:47:27.471Z,99.99
2017-11-17T01:48:27.422Z,99.99
2017-11-17T01:49:27.459Z,99.99
2017-11-17T01:50:27.489Z,99.99
2017-11-17T01:51:27.457Z,99.99
2017-11-17T01:52:27.550Z,99.99
2017-11-17T01:53:27.460Z,99.99
2017-11-17T01:54:27.489Z,99.99
2017-11-17T01:55:27.554Z,99.99
2017-11-17T01:56:27.491Z,99.99
2017-11-17T01:57:27.554Z,99.99
2017-11-17T01:58:27.556Z,99.99
2017-11-17T01:59:27.497Z,99.99
2017-11-17T02:00:27.559Z,99.99
2017-11-17T02:01:27.577Z,99.99
2017-11-17T02:02:27.557Z,99.99
2017-11-17T02:03:27.550Z,99.99
2017-11-17T02:04:27.568Z,99.99
2017-11-17T02:05:27.558Z,99.99
2017-11-17T02:06:27.494Z,99.99
2017-11-17T02:07:27.562Z,99.99
2017-11-17T02:08:27.561Z,99.99
2017-11-17T02:09:27.502Z,99.99
2017-11-17T02:10:27.564Z,99.99
2017-11-17T02:11:27.493Z,99.99
2017-11-17T02:12:27.565Z,99.99
2017-11-17T02:13:27.501Z,99.99
2017-11-17T02:14:27.472Z,99.99
2017-11-17T02:15:27.471Z,99.99
2017-11-17T02:16:27.563Z,99.99
2017-11-17T02:17:27.497Z,99.99
2017-11-17T02:18:27.476Z,99.99
2017-11-17T02:19:27.434Z,99.99
2017-11-17T02:20:27.490Z,99.99
2017-11-17T02:21:27.436Z,99.99
2017-11-17T02:22:27.471Z,99.99
2017-11-17T02:23:27.560Z,99.99
2017-11-17T02:24:27.578Z,99.99
2017-11-17T02:25:27.503Z,99.99
2017-11-17T02:26:27.572Z,99.99
2017-11-17T02:27:27.510Z,99.99
2017-11-17T02:28:27.570Z,99.99
2017-11-17T02:29:27.511Z,99.99
2017-11-17T02:30:27.574Z,99.99
2017-11-17T02:31:27.511Z,99.99
2017-11-17T02:32:27.508Z,99.99
2017-11-17T02:33:27.575Z,99.99
2017-11-17T02:34:27.576Z,99.99
2017-11-17T02:35:27.534Z,99.99
2017-11-17T02:36:27.578Z,99.99
2017-11-17T02:37:27.513Z,99.99
2017-11-17T02:38:27.621Z,99.99
2017-11-17T02:39:27.581Z,99.99
2017-11-17T02:40:27.514Z,99.99
2017-11-17T02:41:27.582Z,99.99
2017-11-17T02:42:27.518Z,99.99
2017-11-17T02:43:27.581Z,99.99
2017-11-17T02:44:27.566Z,99.99
2017-11-17T02:45:27.510Z,99.99
2017-11-17T02:46:27.522Z,99.99
2017-11-17T02:47:27.477Z,99.99
2017-11-17T02:48:27.513Z,99.99
2017-11-17T02:49:27.485Z,99.99
2017-11-17T02:50:27.569Z,99.99
2017-11-17T02:51:27.541Z,99.99
2017-11-17T02:52:27.482Z,99.99
2017-11-17T02:53:27.479Z,99.99
2017-11-17T02:54:27.548Z,99.99
2017-11-17T02:55:27.499Z,99.99
2017-11-17T02:56:27.529Z,99.99
2017-11-17T02:57:27.483Z,99.99
2017-11-17T02:58:27.482Z,99.99
2017-11-17T02:59:27.485Z,99.99
2017-11-17T03:00:27.453Z,99.99
2017-11-17T03:01:27.459Z,99.99
2017-11-17T03:02:27.524Z,99.99
2017-11-17T03:03:27.484Z,99.99
2017-11-17T03:04:27.609Z,99.99
2017-11-17T03:05:27.526Z,99.99
2017-11-17T03:06:27.597Z,99.99
2017-11-17T03:07:27.534Z,99.99
2017-11-17T03:08:27.595Z,99.99
2017-11-17T03:09:27.536Z,99.99
2017-11-17T03:10:27.535Z,99.99
2017-11-17T03:11:27.599Z,99.99
2017-11-17T03:12:27.557Z,99.99
2017-11-17T03:13:27.535Z,99.99
2017-11-17T03:14:27.566Z,99.99
2017-11-17T03:15:27.585Z,99.99
2017-11-17T03:16:27.459Z,99.99
2017-11-17T03:17:27.464Z,99.99
2017-11-17T03:18:27.469Z,99.99
2017-11-17T03:19:27.505Z,99.99
2017-11-17T03:20:27.468Z,99.99
2017-11-17T03:21:27.526Z,99.99
2017-11-17T03:22:27.501Z,99.99
2017-11-17T03:23:27.495Z,99.99
2017-11-17T03:24:27.520Z,99.99
2017-11-17T03:25:27.594Z,99.99
2017-11-17T03:26:27.515Z,99.99
2017-11-17T03:27:27.560Z,99.99
2017-11-17T03:28:27.600Z,99.99
2017-11-17T03:29:27.531Z,99.99
2017-11-17T03:30:27.609Z,99.99
2017-11-17T03:31:27.487Z,99.99
2017-11-17T03:32:27.521Z,99.99
2017-11-17T03:33:27.510Z,99.99
2017-11-17T03:34:27.602Z,99.99
2017-11-17T03:35:27.563Z,99.99
2017-11-17T03:36:27.486Z,99.99
2017-11-17T03:37:27.516Z,99.99
2017-11-17T03:38:27.602Z,99.99
2017-11-17T03:39:27.521Z,99.99
2017-11-17T03:40:27.525Z,99.99
2017-11-17T03:41:27.610Z,99.99
2017-11-17T03:42:27.615Z,99.99
2017-11-17T03:43:27.525Z,99.99
2017-11-17T03:44:27.553Z,99.99
2017-11-17T03:45:27.619Z,99.99
2017-11-17T03:46:27.556Z,99.99
2017-11-17T03:47:27.625Z,99.99
2017-11-17T03:48:27.557Z,99.99
2017-11-17T03:49:27.622Z,99.99
2017-11-17T03:50:27.555Z,99.99
2017-11-17T03:51:27.637Z,99.99
2017-11-17T03:52:27.557Z,99.99
2017-11-17T03:53:27.626Z,99.99
2017-11-17T03:54:27.490Z,99.99
2017-11-17T03:55:27.547Z,99.99
2017-11-17T03:56:27.515Z,99.99
2017-11-17T03:58:27.514Z,99.99
2017-11-17T03:59:27.516Z,99.99
2017-11-17T04:00:27.552Z,99.99
2017-11-17T04:01:27.536Z,99.99
2017-11-17T04:02:27.517Z,99.99
2017-11-17T04:03:27.491Z,99.99
2017-11-17T04:04:27.566Z,99.99
2017-11-17T04:05:27.573Z,99.99
2017-11-17T04:06:27.638Z,99.99
2017-11-17T04:07:27.565Z,99.99
2017-11-17T04:08:27.635Z,99.99
2017-11-17T04:09:27.565Z,99.99
2017-11-17T04:10:27.636Z,99.99
2017-11-17T04:11:27.729Z,99.99
2017-11-17T04:12:27.637Z,99.99
2017-11-17T04:13:27.574Z,99.99
2017-11-17T04:14:27.636Z,99.99
2017-11-17T04:15:27.638Z,99.99
2017-11-17T04:16:27.570Z,99.99
2017-11-17T04:17:27.638Z,99.99
2017-11-17T04:18:27.574Z,99.99
2017-11-17T04:19:27.646Z,99.99
2017-11-17T04:20:27.575Z,99.99
2017-11-17T04:21:27.641Z,99.99
2017-11-17T04:22:27.574Z,99.99
2017-11-17T04:23:27.650Z,99.99
2017-11-17T04:24:27.533Z,99.99
2017-11-17T04:25:27.621Z,99.99
2017-11-17T04:26:27.602Z,99.99
2017-11-17T04:27:27.608Z,99.99
2017-11-17T04:28:27.544Z,99.99
2017-11-17T04:29:27.603Z,99.99
2017-11-17T04:30:27.530Z,99.99
2017-11-17T04:31:27.537Z,99.99
2017-11-17T04:32:27.592Z,99.99
2017-11-17T04:33:27.601Z,99.99
2017-11-17T04:34:27.602Z,99.99
2017-11-17T04:35:27.583Z,99.99
2017-11-17T04:36:27.649Z,99.99
2017-11-17T04:37:27.595Z,99.99
2017-11-17T04:38:27.652Z,99.99
2017-11-17T04:39:27.585Z,99.99
2017-11-17T04:40:27.536Z,99.99
2017-11-17T04:41:27.718Z,99.99
2017-11-17T04:42:27.654Z,99.99
2017-11-17T04:43:27.584Z,99.99
2017-11-17T04:44:27.654Z,99.99
2017-11-17T04:45:27.590Z,99.99
2017-11-17T04:46:27.661Z,99.99
2017-11-17T04:47:27.658Z,99.99
2017-11-17T04:48:27.656Z,99.99
2017-11-17T04:49:27.742Z,99.99
2017-11-17T04:50:27.660Z,99.99
2017-11-17T04:51:27.593Z,99.99
2017-11-17T04:52:27.594Z,99.99
2017-11-17T04:53:27.662Z,99.99
2017-11-17T04:54:27.587Z,99.99
2017-11-17T04:55:27.568Z,99.99
2017-11-17T04:56:27.603Z,99.99
2017-11-17T04:57:27.572Z,99.99
2017-11-17T04:58:27.620Z,99.99
2017-11-17T04:59:27.574Z,99.99
2017-11-17T05:00:27.659Z,99.99
2017-11-17T05:01:27.542Z,99.99
2017-11-17T05:02:27.623Z,99.99
2017-11-17T05:03:27.662Z,99.99
2017-11-17T05:04:27.648Z,99.99
2017-11-17T05:05:27.617Z,99.99
2017-11-17T05:06:27.600Z,99.99
2017-11-17T05:07:27.659Z,99.99
2017-11-17T05:08:27.526Z,99.99
2017-11-17T05:09:27.621Z,99.99
2017-11-17T05:10:27.652Z,99.99
2017-11-17T05:11:27.627Z,99.99
2017-11-17T05:12:27.656Z,99.99
2017-11-17T05:13:27.596Z,99.99
2017-11-17T05:14:27.628Z,99.99
2017-11-17T05:15:27.560Z,99.99
2017-11-17T05:16:27.611Z,99.99
2017-11-17T05:17:27.695Z,99.99
2017-11-17T05:18:27.611Z,99.99
2017-11-17T05:19:27.685Z,99.99
2017-11-17T05:20:27.607Z,99.99
2017-11-17T05:21:27.677Z,99.99
2017-11-17T05:22:27.678Z,99.99
2017-11-17T05:23:27.681Z,99.99
2017-11-17T05:24:27.614Z,99.99
2017-11-17T05:25:27.678Z,99.99
2017-11-17T05:26:27.685Z,99.99
2017-11-17T05:27:27.614Z,99.99
2017-11-17T05:28:27.679Z,99.99
2017-11-17T05:29:27.615Z,99.99
2017-11-17T05:30:27.682Z,99.99
2017-11-17T05:31:27.682Z,99.99
2017-11-17T05:32:27.617Z,99.99
2017-11-17T05:33:27.683Z,99.99
2017-11-17T05:34:27.687Z,99.99
2017-11-17T05:35:27.620Z,99.99
2017-11-17T05:36:27.687Z,99.99
2017-11-17T05:37:27.646Z,99.99
2017-11-17T05:38:27.688Z,99.99
2017-11-17T05:39:27.624Z,99.99
2017-11-17T05:40:27.626Z,99.99
2017-11-17T05:41:27.904Z,99.99
2017-11-17T05:42:27.689Z,99.99
2017-11-17T05:43:27.635Z,99.99
2017-11-17T05:44:27.695Z,99.99
2017-11-17T05:45:27.627Z,99.99
2017-11-17T05:46:27.694Z,99.99
2017-11-17T05:47:27.726Z,99.99
2017-11-17T05:48:27.630Z,99.99
2017-11-17T05:49:27.695Z,99.99
2017-11-17T05:50:27.694Z,99.99
2017-11-17T05:51:27.697Z,99.99
2017-11-17T05:52:27.695Z,99.99
2017-11-17T05:53:27.632Z,99.99
2017-11-17T05:54:27.695Z,99.99
2017-11-17T05:55:27.628Z,99.99
2017-11-17T05:56:27.561Z,99.99
2017-11-17T05:57:27.591Z,99.99
2017-11-17T05:58:27.683Z,99.99
2017-11-17T05:59:27.665Z,99.99
2017-11-17T06:00:27.633Z,99.99
2017-11-17T06:01:27.658Z,99.99
2017-11-17T06:02:27.651Z,99.99
2017-11-17T06:03:27.685Z,99.99
2017-11-17T06:04:27.595Z,99.99
2017-11-17T06:05:27.705Z,99.99
2017-11-17T06:06:27.637Z,99.99
2017-11-17T06:07:27.708Z,99.99
2017-11-17T06:08:27.638Z,99.99
2017-11-17T06:09:27.705Z,99.99
2017-11-17T06:10:27.640Z,99.99
2017-11-17T06:11:27.706Z,99.99
2017-11-17T06:12:27.638Z,99.99
2017-11-17T06:13:27.706Z,99.99
2017-11-17T06:14:27.644Z,99.99
2017-11-17T06:15:27.769Z,99.99
2017-11-17T06:16:27.582Z,99.99
2017-11-17T06:17:27.617Z,99.99
2017-11-17T06:18:27.593Z,99.99
2017-11-17T06:19:27.623Z,99.99
2017-11-17T06:20:27.666Z,99.99
2017-11-17T06:21:27.711Z,99.99
2017-11-17T06:22:27.700Z,99.99
2017-11-17T06:23:27.711Z,99.99
2017-11-17T06:24:27.854Z,99.99
2017-11-17T06:25:27.681Z,99.99
2017-11-17T06:26:27.652Z,99.99
2017-11-17T06:27:27.702Z,99.99
2017-11-17T06:28:27.705Z,99.99
2017-11-17T06:29:27.625Z,99.99
2017-11-17T06:30:27.628Z,99.99
2017-11-17T06:31:27.593Z,99.99
2017-11-17T06:32:27.623Z,99.99
2017-11-17T06:33:27.673Z,99.99
2017-11-17T06:34:27.627Z,99.99
2017-11-17T06:35:27.656Z,99.99
2017-11-17T06:36:27.722Z,99.99
2017-11-17T06:37:27.656Z,99.99
2017-11-17T06:38:27.765Z,99.99
2017-11-17T06:39:27.655Z,99.99
2017-11-17T06:40:27.727Z,99.99
2017-11-17T06:41:27.661Z,99.99
2017-11-17T06:42:27.724Z,99.99
2017-11-17T06:43:27.661Z,99.99
2017-11-17T06:44:27.727Z,99.99
2017-11-17T06:45:27.659Z,99.99
2017-11-17T06:46:27.622Z,99.99
2017-11-17T06:47:27.681Z,99.99
2017-11-17T06:48:27.690Z,99.99
2017-11-17T06:49:27.571Z,99.99
2017-11-17T06:50:27.682Z,99.99
2017-11-17T06:51:27.716Z,99.99
2017-11-17T06:52:27.666Z,99.99
2017-11-17T06:53:27.658Z,99.99
2017-11-17T06:54:27.720Z,99.99
2017-11-17T06:55:27.692Z,99.99
2017-11-17T06:56:27.604Z,99.99
2017-11-17T06:57:27.675Z,99.99
2017-11-17T06:58:27.677Z,99.99
2017-11-17T06:59:27.725Z,99.99
2017-11-17T07:00:27.735Z,99.99
2017-11-17T07:01:27.672Z,99.99
2017-11-17T07:02:27.647Z,99.99
2017-11-17T07:03:27.722Z,99.99
2017-11-17T07:04:27.725Z,99.99
2017-11-17T07:05:27.710Z,99.99
2017-11-17T07:06:27.742Z,99.99
2017-11-17T07:07:27.742Z,99.99
2017-11-17T07:08:27.674Z,99.99
2017-11-17T07:09:27.742Z,99.99
2017-11-17T07:11:27.675Z,99.99
2017-11-17T07:12:27.744Z,99.99
2017-11-17T07:13:27.678Z,99.99
2017-11-17T07:14:27.750Z,99.99
2017-11-17T07:15:27.683Z,99.99
2017-11-17T07:16:27.746Z,99.99
2017-11-17T07:17:27.684Z,99.99
2017-11-17T07:18:27.682Z,99.99
2017-11-17T07:19:27.750Z,99.99
2017-11-17T07:20:27.680Z,99.99
2017-11-17T07:21:27.750Z,99.99
2017-11-17T07:22:27.707Z,99.99
2017-11-17T07:23:27.751Z,99.99
2017-11-17T07:24:27.750Z,99.99
2017-11-17T07:25:27.699Z,99.99
2017-11-17T07:26:27.753Z,99.99
2017-11-17T07:27:27.655Z,99.99
2017-11-17T07:28:27.660Z,99.99
2017-11-17T07:29:27.657Z,99.99
2017-11-17T07:30:27.738Z,99.99
2017-11-17T07:31:27.737Z,99.99
2017-11-17T07:32:27.736Z,99.99
2017-11-17T07:33:27.743Z,99.99
2017-11-17T07:34:27.766Z,99.99
2017-11-17T07:35:27.757Z,99.99
2017-11-17T07:36:27.756Z,99.99
2017-11-17T07:37:27.692Z,99.99
2017-11-17T07:38:27.758Z,99.99
2017-11-17T07:39:27.690Z,99.99
2017-11-17T07:40:27.757Z,99.99
2017-11-17T07:41:27.690Z,99.99
2017-11-17T07:42:27.761Z,99.99
2017-11-17T07:43:27.773Z,99.99
2017-11-17T07:44:27.693Z,99.99
2017-11-17T07:45:27.699Z,99.99
2017-11-17T07:46:27.763Z,99.99
2017-11-17T07:47:27.693Z,99.99
2017-11-17T07:48:27.768Z,99.99
2017-11-17T07:49:27.698Z,99.99
2017-11-17T07:50:27.769Z,99.99
2017-11-17T07:51:27.698Z,99.99
2017-11-17T07:52:27.766Z,99.99
2017-11-17T07:53:27.701Z,99.99
2017-11-17T07:54:27.771Z,99.99
2017-11-17T07:55:27.680Z,99.99
2017-11-17T07:56:27.701Z,99.99
2017-11-17T07:57:27.714Z,99.99
2017-11-17T07:58:27.770Z,99.99
2017-11-17T07:59:27.707Z,99.99
2017-11-17T08:00:27.774Z,99.99
2017-11-17T08:01:27.708Z,99.99
2017-11-17T08:02:27.774Z,99.99
2017-11-17T08:03:27.712Z,99.99
2017-11-17T08:04:27.780Z,99.99
2017-11-17T08:05:27.730Z,99.99
2017-11-17T08:06:27.701Z,99.99
2017-11-17T08:07:27.676Z,99.99
2017-11-17T08:08:27.701Z,99.99
2017-11-17T08:09:27.721Z,99.99
2017-11-17T08:10:27.679Z,99.99
2017-11-17T08:11:27.778Z,99.99
2017-11-17T08:12:27.680Z,99.99
2017-11-17T08:13:27.690Z,99.99
2017-11-17T08:14:27.658Z,99.99
2017-11-17T08:15:27.661Z,99.99
2017-11-17T08:16:27.640Z,99.99
2017-11-17T08:17:27.768Z,99.99
2017-11-17T08:18:27.742Z,99.99
2017-11-17T08:19:27.728Z,99.99
2017-11-17T08:20:27.783Z,99.99
2017-11-17T08:21:27.687Z,99.99
2017-11-17T08:22:27.706Z,99.99
2017-11-17T08:23:27.729Z,99.99
2017-11-17T08:24:27.645Z,99.99
2017-11-17T08:25:27.719Z,99.99
2017-11-17T08:26:27.793Z,99.99
2017-11-17T08:27:27.733Z,99.99
2017-11-17T08:28:27.817Z,99.99
2017-11-17T08:29:27.789Z,99.99
2017-11-17T08:30:27.720Z,99.99
2017-11-17T08:31:27.790Z,99.99
2017-11-17T08:32:27.722Z,99.99
2017-11-17T08:33:27.791Z,99.99
2017-11-17T08:34:27.792Z,99.99
2017-11-17T08:35:27.783Z,99.99
2017-11-17T08:36:27.744Z,99.99
2017-11-17T08:37:27.674Z,99.99
2017-11-17T08:38:27.702Z,99.99
2017-11-17T08:39:27.780Z,99.99
2017-11-17T08:40:27.717Z,99.99
2017-11-17T08:41:27.746Z,99.99
2017-11-17T08:42:27.744Z,99.99
2017-11-17T08:43:27.749Z,99.99
2017-11-17T08:44:27.746Z,99.99
2017-11-17T08:45:27.734Z,99.99
2017-11-17T08:46:27.799Z,99.99
2017-11-17T08:47:27.734Z,99.99
2017-11-17T08:48:27.802Z,99.99
2017-11-17T08:49:27.740Z,99.99
2017-11-17T08:50:27.803Z,99.99
2017-11-17T08:51:27.736Z,99.99
2017-11-17T08:52:27.803Z,99.99
2017-11-17T08:53:27.735Z,99.99
2017-11-17T08:54:27.813Z,99.83
2017-11-17T08:55:27.738Z,99.99
2017-11-17T08:56:27.805Z,99.99
2017-11-17T08:57:27.741Z,99.99
2017-11-17T08:58:27.741Z,99.99
2017-11-17T08:59:27.843Z,99.99
2017-11-17T09:00:27.740Z,99.99
2017-11-17T09:01:27.820Z,99.99
2017-11-17T09:02:27.744Z,99.99
2017-11-17T09:03:27.808Z,99.99
2017-11-17T09:04:27.745Z,99.99
2017-11-17T09:05:27.810Z,99.99
2017-11-17T09:06:27.737Z,99.99
2017-11-17T09:07:27.715Z,99.99
2017-11-17T09:08:27.779Z,99.99
2017-11-17T09:09:27.801Z,99.99
2017-11-17T09:10:27.717Z,99.99
2017-11-17T09:11:27.744Z,99.99
2017-11-17T09:12:27.980Z,99.99
2017-11-17T09:13:27.760Z,99.99
2017-11-17T09:14:27.817Z,99.99
2017-11-17T09:15:27.748Z,99.99
2017-11-17T09:16:27.818Z,99.99
2017-11-17T09:17:27.752Z,99.99
2017-11-17T09:18:27.820Z,99.99
2017-11-17T09:19:27.755Z,99.99
2017-11-17T09:20:27.819Z,99.99
2017-11-17T09:21:27.750Z,99.99
2017-11-17T09:22:27.837Z,99.99
2017-11-17T09:23:27.753Z,99.99
2017-11-17T09:24:27.824Z,99.99
2017-11-17T09:25:27.759Z,99.99
2017-11-17T09:26:27.772Z,99.99
2017-11-17T09:27:27.776Z,99.99
2017-11-17T09:28:27.693Z,99.99
2017-11-17T09:29:27.839Z,99.99
2017-11-17T09:30:27.786Z,99.99
2017-11-17T09:31:27.735Z,99.99
2017-11-17T09:32:27.688Z,99.99
2017-11-17T09:33:27.718Z,99.99
2017-11-17T09:34:27.782Z,99.99
2017-11-17T09:35:27.705Z,99.99
2017-11-17T09:36:27.755Z,99.99
2017-11-17T09:37:27.785Z,99.99
2017-11-17T09:38:27.764Z,99.99
2017-11-17T09:39:27.813Z,99.99
2017-11-17T09:40:27.717Z,99.99
2017-11-17T09:41:27.728Z,99.99
2017-11-17T09:42:27.704Z,99.99
2017-11-17T09:43:27.761Z,99.99
2017-11-17T09:44:27.735Z,99.99
2017-11-17T09:45:27.791Z,99.99
2017-11-17T09:46:27.716Z,99.99
2017-11-17T09:47:27.772Z,99.99
2017-11-17T09:48:27.839Z,99.99
2017-11-17T09:49:27.775Z,99.99
2017-11-17T09:50:27.839Z,99.99
2017-11-17T09:51:27.775Z,99.99
2017-11-17T09:52:27.841Z,99.99
2017-11-17T09:53:27.842Z,99.99
2017-11-17T09:54:27.770Z,99.99
2017-11-17T09:55:27.840Z,99.99
2017-11-17T09:56:27.843Z,99.99
2017-11-17T09:57:27.772Z,99.78
2017-11-17T09:58:27.842Z,99.72
2017-11-17T09:59:27.779Z,99.99
2017-11-17T10:00:27.848Z,99.99
2017-11-17T10:01:27.780Z,99.99
2017-11-17T10:02:27.847Z,99.99
2017-11-17T10:03:27.775Z,99.99
2017-11-17T10:04:27.848Z,99.37
2017-11-17T10:05:27.784Z,98.07
2017-11-17T10:06:27.849Z,97.61
2017-11-17T10:07:27.782Z,97.39
2017-11-17T10:08:27.780Z,97.36
2017-11-17T10:09:27.855Z,97.96
2017-11-17T10:10:27.803Z,97.36
2017-11-17T10:11:27.851Z,96.93
2017-11-17T10:12:27.787Z,95.75
2017-11-17T10:13:27.852Z,95.34
2017-11-17T10:14:27.789Z,95.75
2017-11-17T10:15:27.719Z,95.42
2017-11-17T10:16:27.785Z,94.77
2017-11-17T10:17:27.831Z,94.12
2017-11-17T10:18:27.809Z,92.38
2017-11-17T10:19:27.786Z,91.36
2017-11-17T10:20:27.765Z,89.72
2017-11-17T10:21:27.788Z,87.26
2017-11-17T10:22:27.745Z,86.49
2017-11-17T10:23:27.786Z,86.44
2017-11-17T10:24:27.848Z,85.27
2017-11-17T10:25:27.879Z,85.30
2017-11-17T10:26:27.793Z,84.87
2017-11-17T10:27:27.860Z,83.67
2017-11-17T10:28:27.796Z,83.06
2017-11-17T10:29:27.862Z,82.11
2017-11-17T10:30:27.792Z,82.77
2017-11-17T10:31:27.864Z,83.89
2017-11-17T10:32:27.794Z,83.73
2017-11-17T10:33:27.864Z,83.70
2017-11-17T10:34:27.867Z,82.88
2017-11-17T10:35:27.805Z,82.88
2017-11-17T10:36:27.804Z,83.14
2017-11-17T10:37:27.868Z,82.77
2017-11-17T10:38:27.802Z,82.56
2017-11-17T10:39:27.868Z,84.17
2017-11-17T10:40:27.868Z,84.20
2017-11-17T10:41:27.801Z,83.94
2017-11-17T10:42:27.871Z,84.26
2017-11-17T10:43:27.804Z,82.67
2017-11-17T10:44:27.871Z,81.92
2017-11-17T10:45:27.835Z,81.98
2017-11-17T10:46:27.872Z,82.21
2017-11-17T10:47:27.803Z,81.58
2017-11-17T10:48:27.804Z,82.77
2017-11-17T10:49:27.811Z,80.97
2017-11-17T10:50:27.877Z,81.98
2017-11-17T10:51:27.812Z,81.63
2017-11-17T10:52:27.938Z,80.84
2017-11-17T10:53:27.877Z,78.86
2017-11-17T10:54:27.807Z,79.39
2017-11-17T10:55:27.879Z,79.28
2017-11-17T10:56:27.809Z,80.05
2017-11-17T10:57:27.880Z,81.95
2017-11-17T10:58:27.877Z,80.92
2017-11-17T10:59:27.808Z,82.14
2017-11-17T11:00:27.882Z,83.65
2017-11-17T11:01:27.880Z,82.43
2017-11-17T11:02:27.816Z,81.79
2017-11-17T11:03:27.881Z,81.68
2017-11-17T11:04:27.813Z,78.89
2017-11-17T11:05:27.886Z,79.20
2017-11-17T11:06:27.811Z,80.29
2017-11-17T11:07:27.889Z,81.18
2017-11-17T11:08:27.816Z,83.40
2017-11-17T11:09:27.925Z,83.17
2017-11-17T11:10:27.814Z,83.17
2017-11-17T11:11:27.888Z,81.60
2017-11-17T11:12:27.821Z,79.20
2017-11-17T11:13:27.886Z,79.07
2017-11-17T11:14:27.819Z,79.81
2017-11-17T11:15:27.890Z,80.07
2017-11-17T11:16:27.894Z,79.36
2017-11-17T11:17:27.894Z,78.41
2017-11-17T11:18:27.824Z,77.57
2017-11-17T11:19:27.897Z,77.94
2017-11-17T11:20:27.825Z,76.99
2017-11-17T11:21:27.896Z,75.13
2017-11-17T11:22:27.827Z,74.68
2017-11-17T11:23:27.894Z,72.75
2017-11-17T11:24:27.825Z,72.75
2017-11-17T11:25:27.925Z,73.45
2017-11-17T11:26:27.844Z,72.69
2017-11-17T11:27:27.899Z,71.13
2017-11-17T11:28:27.835Z,71.18
2017-11-17T11:29:27.898Z,71.54
2017-11-17T11:30:27.839Z,72.59
2017-11-17T11:31:27.900Z,73.30
2017-11-17T11:32:27.835Z,73.06
2017-11-17T11:33:27.984Z,73.22
2017-11-17T11:34:27.900Z,72.80
2017-11-17T11:35:27.830Z,71.86
2017-11-17T11:36:27.765Z,71.39
2017-11-17T11:37:27.824Z,72.53
2017-11-17T11:38:27.842Z,70.60
2017-11-17T11:39:27.812Z,69.70
2017-11-17T11:40:27.795Z,71.75
2017-11-17T11:41:27.857Z,71.05
2017-11-17T11:42:27.789Z,69.49
2017-11-17T11:43:27.845Z,69.72
2017-11-17T11:44:27.792Z,71.75
2017-11-17T11:45:27.787Z,71.83
2017-11-17T11:46:27.849Z,74.11
2017-11-17T11:47:27.910Z,75.73
2017-11-17T11:48:27.842Z,75.31
2017-11-17T11:49:27.910Z,77.59
2017-11-17T11:50:27.911Z,79.05
2017-11-17T11:51:27.847Z,80.60
2017-11-17T11:52:27.912Z,78.97
2017-11-17T11:53:27.886Z,78.78
2017-11-17T11:54:28.069Z,78.75
2017-11-17T11:55:27.914Z,77.83
2017-11-17T11:56:27.846Z,78.17
2017-11-17T11:57:27.913Z,78.59
2017-11-17T11:58:27.847Z,79.23
2017-11-17T11:59:27.915Z,80.18
2017-11-17T12:00:27.917Z,80.76
2017-11-17T12:01:27.850Z,82.56
2017-11-17T12:02:27.849Z,80.73
2017-11-17T12:03:27.917Z,79.52
2017-11-17T12:04:27.852Z,79.83
2017-11-17T12:05:27.852Z,78.07
2017-11-17T12:06:27.852Z,79.39
2017-11-17T12:07:27.881Z,78.86
2017-11-17T12:08:27.862Z,76.67
2017-11-17T12:09:27.922Z,74.60
2017-11-17T12:10:27.877Z,72.93
2017-11-17T12:11:27.851Z,74.68
2017-11-17T12:12:27.922Z,75.76
2017-11-17T12:13:27.852Z,75.78
2017-11-17T12:14:27.927Z,68.76
2017-11-17T12:15:27.863Z,67.98
2017-11-17T12:16:27.929Z,67.83
2017-11-17T12:17:27.861Z,68.89
2017-11-17T12:18:27.857Z,69.51
2017-11-17T12:19:27.927Z,71.10
2017-11-17T12:20:27.861Z,71.03
2017-11-17T12:21:27.929Z,69.77
2017-11-17T12:22:27.856Z,69.34
2017-11-17T12:23:27.929Z,70.84
2017-11-17T12:24:27.862Z,68.94
2017-11-17T12:25:27.930Z,69.34
2017-11-17T12:26:27.894Z,68.22
2017-11-17T12:27:27.881Z,68.43
2017-11-17T12:28:27.801Z,69.77
2017-11-17T12:29:27.862Z,68.14
2017-11-17T12:30:27.893Z,71.03
2017-11-17T12:31:27.846Z,66.22
2017-11-17T12:32:27.828Z,65.55
2017-11-17T12:33:27.897Z,68.35
2017-11-17T12:34:27.791Z,67.44
2017-11-17T12:35:27.825Z,68.66
2017-11-17T12:36:27.936Z,65.06
2017-11-17T12:37:27.843Z,64.72
2017-11-17T12:38:27.928Z,62.79
2017-11-17T12:39:27.905Z,62.82
2017-11-17T12:40:27.847Z,60.81
2017-11-17T12:41:27.933Z,62.43
2017-11-17T12:42:27.937Z,65.08
2017-11-17T12:43:27.939Z,68.40
2017-11-17T12:44:27.881Z,63.13
2017-11-17T12:45:27.924Z,67.83
2017-11-17T12:46:27.878Z,71.81
2017-11-17T12:47:27.946Z,71.96
2017-11-17T12:48:27.872Z,73.61
2017-11-17T12:49:27.946Z,72.83
2017-11-17T12:50:27.874Z,73.16
2017-11-17T12:51:27.902Z,74.44
2017-11-17T12:52:27.886Z,75.15
2017-11-17T12:53:27.950Z,77.17
2017-11-17T12:54:27.879Z,78.25